sensor_id;sensor_type;location;lat;lon;timestamp;pressure;altitude;pressure_sealevel;temperature;humidity
21234;BME280;10774;42.178;26.578;2023-04-27T00:01:58;99401.00;;;10.82;100.00
21234;BME280;10774;42.178;26.578;2023-04-27T00:04:24;99401.78;;;10.71;100.00
21234;BME280;10774;42.178;26.578;2023-04-27T00:06:49;99399.63;;;10.76;100.00
21234;BME280;10774;42.178;26.578;2023-04-27T00:09:15;99412.66;;;10.81;100.00
21234;BME280;10774;42.178;26.578;2023-04-27T00:11:41;99416.00;;;10.84;100.00
21234;BME280;10774;42.178;26.578;2023-04-27T00:14:06;99398.25;;;10.70;100.00
21234;BME280;10774;42.178;26.578;2023-04-27T00:16:31;99416.78;;;10.73;100.00
21234;BME280;10774;42.178;26.578;2023-04-27T00:18:57;99401.53;;;10.74;100.00
21234;BME280;10774;42.178;26.578;2023-04-27T00:21:22;99393.72;;;10.71;100.00
21234;BME280;10774;42.178;26.578;2023-04-27T00:23:48;99415.06;;;10.72;100.00
21234;BME280;10774;42.178;26.578;2023-04-27T00:26:13;99388.19;;;10.48;100.00
21234;BME280;10774;42.178;26.578;2023-04-27T00:28:38;99415.22;;;10.58;100.00
21234;BME280;10774;42.178;26.578;2023-04-27T00:31:04;99424.84;;;10.73;100.00
21234;BME280;10774;42.178;26.578;2023-04-27T00:33:30;99426.03;;;10.69;100.00
21234;BME280;10774;42.178;26.578;2023-04-27T00:35:58;99432.88;;;10.73;100.00
21234;BME280;10774;42.178;26.578;2023-04-27T00:38:24;99424.91;;;10.85;100.00
21234;BME280;10774;42.178;26.578;2023-04-27T00:40:51;99427.97;;;10.91;100.00
21234;BME280;10774;42.178;26.578;2023-04-27T00:43:16;99418.66;;;10.97;100.00
21234;BME280;10774;42.178;26.578;2023-04-27T00:45:41;99428.41;;;10.98;100.00
21234;BME280;10774;42.178;26.578;2023-04-27T00:48:08;99414.16;;;10.85;100.00
21234;BME280;10774;42.178;26.578;2023-04-27T00:50:34;99428.41;;;10.98;100.00
21234;BME280;10774;42.178;26.578;2023-04-27T00:53:00;99429.22;;;10.74;100.00
21234;BME280;10774;42.178;26.578;2023-04-27T00:55:26;99415.06;;;10.72;100.00
21234;BME280;10774;42.178;26.578;2023-04-27T00:57:51;99441.38;;;11.04;100.00
21234;BME280;10774;42.178;26.578;2023-04-27T01:00:17;99438.66;;;10.80;100.00
21234;BME280;10774;42.178;26.578;2023-04-27T01:02:42;99442.78;;;10.73;100.00
21234;BME280;10774;42.178;26.578;2023-04-27T01:05:08;99436.75;;;10.69;100.00
21234;BME280;10774;42.178;26.578;2023-04-27T01:07:38;99455.00;;;10.64;100.00
21234;BME280;10774;42.178;26.578;2023-04-27T01:10:04;99450.63;;;10.63;100.00
21234;BME280;10774;42.178;26.578;2023-04-27T01:12:30;99456.31;;;10.71;100.00
21234;BME280;10774;42.178;26.578;2023-04-27T01:14:55;99460.22;;;10.42;100.00
21234;BME280;10774;42.178;26.578;2023-04-27T01:17:21;99450.47;;;10.41;100.00
21234;BME280;10774;42.178;26.578;2023-04-27T01:19:46;99473.53;;;10.31;100.00
21234;BME280;10774;42.178;26.578;2023-04-27T01:22:12;99453.53;;;10.22;100.00
21234;BME280;10774;42.178;26.578;2023-04-27T01:24:39;99461.91;;;10.17;100.00
21234;BME280;10774;42.178;26.578;2023-04-27T01:27:05;99468.78;;;10.21;100.00
21234;BME280;10774;42.178;26.578;2023-04-27T01:29:31;99483.72;;;10.38;100.00
21234;BME280;10774;42.178;26.578;2023-04-27T01:31:56;99486.75;;;10.34;100.00
21234;BME280;10774;42.178;26.578;2023-04-27T01:34:21;99484.06;;;10.34;100.00
21234;BME280;10774;42.178;26.578;2023-04-27T01:36:47;99499.63;;;10.29;100.00
21234;BME280;10774;42.178;26.578;2023-04-27T01:39:12;99503.78;;;10.45;100.00
21234;BME280;10774;42.178;26.578;2023-04-27T01:41:38;99501.22;;;10.44;100.00
21234;BME280;10774;42.178;26.578;2023-04-27T01:44:03;99509.91;;;10.60;100.00
21234;BME280;10774;42.178;26.578;2023-04-27T01:46:29;99515.38;;;10.46;100.00
21234;BME280;10774;42.178;26.578;2023-04-27T01:48:54;99507.97;;;10.50;100.00
21234;BME280;10774;42.178;26.578;2023-04-27T01:51:20;99517.09;;;10.47;100.00
21234;BME280;10774;42.178;26.578;2023-04-27T01:53:45;99526.19;;;10.70;100.00
21234;BME280;10774;42.178;26.578;2023-04-27T01:56:11;99509.56;;;10.52;100.00
21234;BME280;10774;42.178;26.578;2023-04-27T01:58:36;99509.13;;;10.07;100.00
21234;BME280;10774;42.178;26.578;2023-04-27T02:01:02;99536.78;;;10.20;100.00
21234;BME280;10774;42.178;26.578;2023-04-27T02:03:27;99532.75;;;10.28;100.00
21234;BME280;10774;42.178;26.578;2023-04-27T02:05:53;99535.28;;;10.16;100.00
21234;BME280;10774;42.178;26.578;2023-04-27T02:08:18;99548.75;;;10.29;100.00
21234;BME280;10774;42.178;26.578;2023-04-27T02:10:44;99535.50;;;10.13;100.00
21234;BME280;10774;42.178;26.578;2023-04-27T02:13:09;99539.78;;;10.16;100.00
21234;BME280;10774;42.178;26.578;2023-04-27T02:15:34;99553.16;;;10.43;100.00
21234;BME280;10774;42.178;26.578;2023-04-27T02:18:01;99524.25;;;10.08;100.00
21234;BME280;10774;42.178;26.578;2023-04-27T02:20:29;99559.81;;;10.50;100.00
21234;BME280;10774;42.178;26.578;2023-04-27T02:22:54;99555.09;;;10.41;100.00
21234;BME280;10774;42.178;26.578;2023-04-27T02:25:20;99526.44;;;9.89;100.00
21234;BME280;10774;42.178;26.578;2023-04-27T02:27:45;99552.66;;;9.98;100.00
21234;BME280;10774;42.178;26.578;2023-04-27T02:30:11;99570.84;;;10.33;100.00
21234;BME280;10774;42.178;26.578;2023-04-27T02:32:37;99571.50;;;10.24;100.00
21234;BME280;10774;42.178;26.578;2023-04-27T02:35:03;99577.03;;;10.20;100.00
21234;BME280;10774;42.178;26.578;2023-04-27T02:37:29;99556.53;;;10.19;100.00
21234;BME280;10774;42.178;26.578;2023-04-27T02:39:54;99550.94;;;10.22;100.00
21234;BME280;10774;42.178;26.578;2023-04-27T02:42:20;99572.38;;;9.97;100.00
21234;BME280;10774;42.178;26.578;2023-04-27T02:44:45;99590.63;;;10.17;100.00
21234;BME280;10774;42.178;26.578;2023-04-27T02:47:11;99578.25;;;9.89;100.00
21234;BME280;10774;42.178;26.578;2023-04-27T02:49:37;99585.97;;;9.94;100.00
21234;BME280;10774;42.178;26.578;2023-04-27T02:52:03;99585.13;;;9.66;100.00
21234;BME280;10774;42.178;26.578;2023-04-27T02:54:28;99593.72;;;9.72;100.00
21234;BME280;10774;42.178;26.578;2023-04-27T02:56:54;99618.31;;;9.78;100.00
21234;BME280;10774;42.178;26.578;2023-04-27T02:59:19;99594.28;;;9.50;100.00
21234;BME280;10774;42.178;26.578;2023-04-27T03:01:45;99618.47;;;9.48;100.00
21234;BME280;10774;42.178;26.578;2023-04-27T03:04:10;99620.28;;;9.62;100.00
21234;BME280;10774;42.178;26.578;2023-04-27T03:06:38;99629.41;;;9.45;100.00
21234;BME280;10774;42.178;26.578;2023-04-27T03:09:03;99623.88;;;9.34;100.00
21234;BME280;10774;42.178;26.578;2023-04-27T03:11:29;99622.13;;;9.33;100.00
21234;BME280;10774;42.178;26.578;2023-04-27T03:13:55;99632.78;;;9.34;100.00
21234;BME280;10774;42.178;26.578;2023-04-27T03:16:20;99632.09;;;9.31;100.00
21234;BME280;10774;42.178;26.578;2023-04-27T03:18:46;99631.34;;;9.29;100.00
21234;BME280;10774;42.178;26.578;2023-04-27T03:21:12;99634.31;;;9.24;100.00
21234;BME280;10774;42.178;26.578;2023-04-27T03:23:38;99631.72;;;9.23;100.00
21234;BME280;10774;42.178;26.578;2023-04-27T03:26:08;99648.47;;;9.12;100.00
21234;BME280;10774;42.178;26.578;2023-04-27T03:28:34;99654.03;;;9.09;100.00
21234;BME280;10774;42.178;26.578;2023-04-27T03:31:10;99655.06;;;9.06;100.00
21234;BME280;10774;42.178;26.578;2023-04-27T03:33:36;99666.84;;;9.04;100.00
21234;BME280;10774;42.178;26.578;2023-04-27T03:36:02;99677.53;;;9.04;100.00
21234;BME280;10774;42.178;26.578;2023-04-27T03:38:29;99662.72;;;8.98;100.00
21234;BME280;10774;42.178;26.578;2023-04-27T03:40:55;99683.94;;;9.15;100.00
21234;BME280;10774;42.178;26.578;2023-04-27T03:43:21;99672.97;;;8.92;100.00
21234;BME280;10774;42.178;26.578;2023-04-27T03:45:47;99692.56;;;8.92;100.00
21234;BME280;10774;42.178;26.578;2023-04-27T03:48:13;99682.38;;;8.69;100.00
21234;BME280;10774;42.178;26.578;2023-04-27T03:50:39;99696.16;;;8.77;100.00
21234;BME280;10774;42.178;26.578;2023-04-27T03:53:04;99693.56;;;8.75;100.00
21234;BME280;10774;42.178;26.578;2023-04-27T03:55:29;99707.66;;;8.93;100.00
21234;BME280;10774;42.178;26.578;2023-04-27T03:57:55;99721.13;;;8.92;100.00
21234;BME280;10774;42.178;26.578;2023-04-27T04:00:21;99713.88;;;8.63;100.00
21234;BME280;10774;42.178;26.578;2023-04-27T04:02:47;99713.28;;;8.58;100.00
21234;BME280;10774;42.178;26.578;2023-04-27T04:05:12;99728.16;;;8.48;100.00
21234;BME280;10774;42.178;26.578;2023-04-27T04:07:39;99732.41;;;8.52;100.00
21234;BME280;10774;42.178;26.578;2023-04-27T04:10:08;99738.28;;;8.43;100.00
21234;BME280;10774;42.178;26.578;2023-04-27T04:12:34;99736.66;;;8.25;100.00
21234;BME280;10774;42.178;26.578;2023-04-27T04:15:01;99738.00;;;8.32;100.00
21234;BME280;10774;42.178;26.578;2023-04-27T04:17:26;99750.44;;;8.17;100.00
21234;BME280;10774;42.178;26.578;2023-04-27T04:19:52;99758.75;;;8.12;100.00
21234;BME280;10774;42.178;26.578;2023-04-27T04:22:17;99745.38;;;8.12;100.00
21234;BME280;10774;42.178;26.578;2023-04-27T04:24:42;99718.31;;;7.71;100.00
21234;BME280;10774;42.178;26.578;2023-04-27T04:27:08;99760.81;;;7.76;100.00
21234;BME280;10774;42.178;26.578;2023-04-27T04:29:34;99764.50;;;7.73;100.00
21234;BME280;10774;42.178;26.578;2023-04-27T04:31:59;99763.97;;;7.67;100.00
21234;BME280;10774;42.178;26.578;2023-04-27T04:34:25;99780.28;;;7.78;100.00
21234;BME280;10774;42.178;26.578;2023-04-27T04:36:50;99777.69;;;7.60;100.00
21234;BME280;10774;42.178;26.578;2023-04-27T04:39:18;99780.38;;;7.43;100.00
21234;BME280;10774;42.178;26.578;2023-04-27T04:41:45;99774.41;;;7.55;100.00
21234;BME280;10774;42.178;26.578;2023-04-27T04:44:10;99783.75;;;7.47;100.00
21234;BME280;10774;42.178;26.578;2023-04-27T04:46:36;99775.03;;;7.43;100.00
21234;BME280;10774;42.178;26.578;2023-04-27T04:49:02;99788.84;;;7.51;100.00
21234;BME280;10774;42.178;26.578;2023-04-27T04:51:28;99783.66;;;7.48;100.00
21234;BME280;10774;42.178;26.578;2023-04-27T04:53:53;99785.91;;;7.40;100.00
21234;BME280;10774;42.178;26.578;2023-04-27T04:56:19;99769.25;;;7.35;100.00
21234;BME280;10774;42.178;26.578;2023-04-27T04:58:45;99797.63;;;7.53;100.00
21234;BME280;10774;42.178;26.578;2023-04-27T05:01:10;99781.19;;;7.45;100.00
21234;BME280;10774;42.178;26.578;2023-04-27T05:03:36;99818.97;;;7.71;100.00
21234;BME280;10774;42.178;26.578;2023-04-27T05:06:02;99816.91;;;7.76;100.00
21234;BME280;10774;42.178;26.578;2023-04-27T05:08:27;99792.50;;;7.66;100.00
21234;BME280;10774;42.178;26.578;2023-04-27T05:10:54;99822.69;;;7.84;100.00
21234;BME280;10774;42.178;26.578;2023-04-27T05:13:20;99817.22;;;7.70;100.00
21234;BME280;10774;42.178;26.578;2023-04-27T05:15:46;99805.44;;;7.74;100.00
21234;BME280;10774;42.178;26.578;2023-04-27T05:18:11;99818.41;;;7.81;100.00
21234;BME280;10774;42.178;26.578;2023-04-27T05:20:37;99799.97;;;7.93;100.00
21234;BME280;10774;42.178;26.578;2023-04-27T05:23:03;99813.72;;;7.85;100.00
21234;BME280;10774;42.178;26.578;2023-04-27T05:25:32;99775.63;;;7.66;100.00
21234;BME280;10774;42.178;26.578;2023-04-27T05:27:58;99808.38;;;7.85;100.00
21234;BME280;10774;42.178;26.578;2023-04-27T05:30:24;99800.09;;;7.74;100.00
21234;BME280;10774;42.178;26.578;2023-04-27T05:32:49;99806.50;;;7.87;100.00
21234;BME280;10774;42.178;26.578;2023-04-27T05:35:15;99796.16;;;7.81;100.00
21234;BME280;10774;42.178;26.578;2023-04-27T05:37:40;99769.69;;;7.43;100.00
21234;BME280;10774;42.178;26.578;2023-04-27T05:40:06;99810.97;;;7.71;100.00
21234;BME280;10774;42.178;26.578;2023-04-27T05:42:34;99811.31;;;7.80;100.00
21234;BME280;10774;42.178;26.578;2023-04-27T05:45:00;99809.59;;;7.95;100.00
21234;BME280;10774;42.178;26.578;2023-04-27T05:47:26;99807.03;;;8.09;100.00
21234;BME280;10774;42.178;26.578;2023-04-27T05:49:52;99817.88;;;8.06;100.00
21234;BME280;10774;42.178;26.578;2023-04-27T05:52:18;99830.41;;;8.22;100.00
21234;BME280;10774;42.178;26.578;2023-04-27T05:54:48;99820.03;;;8.16;100.00
21234;BME280;10774;42.178;26.578;2023-04-27T05:57:14;99820.13;;;8.30;100.00
21234;BME280;10774;42.178;26.578;2023-04-27T05:59:40;99815.84;;;8.43;100.00
21234;BME280;10774;42.178;26.578;2023-04-27T06:02:06;99813.06;;;8.60;100.00
21234;BME280;10774;42.178;26.578;2023-04-27T06:04:32;99812.28;;;8.58;100.00
21234;BME280;10774;42.178;26.578;2023-04-27T06:07:01;99824.31;;;9.11;100.00
21234;BME280;10774;42.178;26.578;2023-04-27T06:09:29;99807.16;;;9.30;100.00
21234;BME280;10774;42.178;26.578;2023-04-27T06:11:55;99824.16;;;9.14;100.00
21234;BME280;10774;42.178;26.578;2023-04-27T06:14:22;99789.88;;;8.75;100.00
21234;BME280;10774;42.178;26.578;2023-04-27T06:16:48;99781.88;;;9.20;100.00
21234;BME280;10774;42.178;26.578;2023-04-27T06:19:13;99816.69;;;9.20;100.00
21234;BME280;10774;42.178;26.578;2023-04-27T06:21:39;99810.50;;;9.19;100.00
21234;BME280;10774;42.178;26.578;2023-04-27T06:24:05;99813.66;;;8.96;100.00
21234;BME280;10774;42.178;26.578;2023-04-27T06:26:30;99787.53;;;8.85;100.00
21234;BME280;10774;42.178;26.578;2023-04-27T06:28:56;99814.94;;;9.04;100.00
21234;BME280;10774;42.178;26.578;2023-04-27T06:31:21;99783.78;;;9.03;100.00
21234;BME280;10774;42.178;26.578;2023-04-27T06:33:47;99776.44;;;9.21;100.00
21234;BME280;10774;42.178;26.578;2023-04-27T06:36:12;99817.72;;;9.61;100.00
21234;BME280;10774;42.178;26.578;2023-04-27T06:38:37;99808.88;;;9.59;100.00
21234;BME280;10774;42.178;26.578;2023-04-27T06:41:03;99822.09;;;9.48;100.00
21234;BME280;10774;42.178;26.578;2023-04-27T06:43:29;99812.53;;;9.58;100.00
21234;BME280;10774;42.178;26.578;2023-04-27T06:45:55;99797.97;;;9.91;100.00
21234;BME280;10774;42.178;26.578;2023-04-27T06:48:20;99829.75;;;9.68;100.00
21234;BME280;10774;42.178;26.578;2023-04-27T06:50:46;99838.53;;;9.42;100.00
21234;BME280;10774;42.178;26.578;2023-04-27T06:53:12;99819.44;;;9.62;100.00
21234;BME280;10774;42.178;26.578;2023-04-27T06:55:38;99830.69;;;10.10;100.00
21234;BME280;10774;42.178;26.578;2023-04-27T06:58:03;99820.97;;;9.66;100.00
21234;BME280;10774;42.178;26.578;2023-04-27T07:00:29;99821.34;;;9.75;100.00
21234;BME280;10774;42.178;26.578;2023-04-27T07:02:55;99823.44;;;10.12;100.00
21234;BME280;10774;42.178;26.578;2023-04-27T07:05:21;99826.88;;;10.00;100.00
21234;BME280;10774;42.178;26.578;2023-04-27T07:07:46;99818.09;;;9.84;100.00
21234;BME280;10774;42.178;26.578;2023-04-27T07:10:11;99832.34;;;9.99;100.00
21234;BME280;10774;42.178;26.578;2023-04-27T07:12:37;99843.47;;;9.78;100.00
21234;BME280;10774;42.178;26.578;2023-04-27T07:15:03;99846.41;;;10.16;100.00
21234;BME280;10774;42.178;26.578;2023-04-27T07:17:31;99836.84;;;9.98;100.00
21234;BME280;10774;42.178;26.578;2023-04-27T07:19:56;99836.06;;;10.10;100.00
21234;BME280;10774;42.178;26.578;2023-04-27T07:22:22;99827.84;;;9.99;100.00
21234;BME280;10774;42.178;26.578;2023-04-27T07:24:47;99859.44;;;9.94;100.00
21234;BME280;10774;42.178;26.578;2023-04-27T07:27:13;99857.72;;;9.79;100.00
21234;BME280;10774;42.178;26.578;2023-04-27T07:29:39;99858.84;;;9.75;100.00
21234;BME280;10774;42.178;26.578;2023-04-27T07:32:07;99868.47;;;10.07;100.00
21234;BME280;10774;42.178;26.578;2023-04-27T07:34:33;99860.56;;;10.33;100.00
21234;BME280;10774;42.178;26.578;2023-04-27T07:37:00;99855.59;;;10.41;100.00
21234;BME280;10774;42.178;26.578;2023-04-27T07:39:26;99878.03;;;10.26;100.00
21234;BME280;10774;42.178;26.578;2023-04-27T07:41:52;99864.19;;;10.60;100.00
21234;BME280;10774;42.178;26.578;2023-04-27T07:44:18;99888.19;;;10.35;100.00
21234;BME280;10774;42.178;26.578;2023-04-27T07:46:44;99877.25;;;10.38;100.00
21234;BME280;10774;42.178;26.578;2023-04-27T07:49:11;99871.44;;;10.58;100.00
21234;BME280;10774;42.178;26.578;2023-04-27T07:51:37;99867.91;;;10.85;100.00
21234;BME280;10774;42.178;26.578;2023-04-27T07:54:04;99877.69;;;11.13;99.87
21234;BME280;10774;42.178;26.578;2023-04-27T07:56:29;99863.78;;;10.66;97.61
21234;BME280;10774;42.178;26.578;2023-04-27T07:58:55;99873.19;;;10.86;95.82
21234;BME280;10774;42.178;26.578;2023-04-27T08:01:21;99859.22;;;11.21;97.57
21234;BME280;10774;42.178;26.578;2023-04-27T08:03:46;99864.75;;;10.92;95.84
21234;BME280;10774;42.178;26.578;2023-04-27T08:06:11;99882.25;;;10.98;95.57
21234;BME280;10774;42.178;26.578;2023-04-27T08:08:37;99880.75;;;10.94;95.77
21234;BME280;10774;42.178;26.578;2023-04-27T08:11:02;99880.44;;;10.71;93.19
21234;BME280;10774;42.178;26.578;2023-04-27T08:13:28;99879.44;;;10.87;95.14
21234;BME280;10774;42.178;26.578;2023-04-27T08:15:53;99888.63;;;11.10;94.99
21234;BME280;10774;42.178;26.578;2023-04-27T08:18:23;99851.34;;;11.05;91.82
21234;BME280;10774;42.178;26.578;2023-04-27T08:20:48;99869.22;;;11.32;91.07
21234;BME280;10774;42.178;26.578;2023-04-27T08:23:14;99889.59;;;11.09;88.37
21234;BME280;10774;42.178;26.578;2023-04-27T08:25:39;99864.63;;;10.94;87.54
21234;BME280;10774;42.178;26.578;2023-04-27T08:28:05;99889.00;;;11.31;90.04
21234;BME280;10774;42.178;26.578;2023-04-27T08:30:31;99900.66;;;11.69;85.90
21234;BME280;10774;42.178;26.578;2023-04-27T08:32:56;99883.63;;;11.31;85.61
21234;BME280;10774;42.178;26.578;2023-04-27T08:35:22;99880.22;;;11.41;85.15
21234;BME280;10774;42.178;26.578;2023-04-27T08:37:47;99872.69;;;12.23;86.81
21234;BME280;10774;42.178;26.578;2023-04-27T08:40:13;99875.38;;;12.72;84.46
21234;BME280;10774;42.178;26.578;2023-04-27T08:42:51;99888.66;;;12.13;80.85
21234;BME280;10774;42.178;26.578;2023-04-27T08:45:18;99863.94;;;11.83;81.32
21234;BME280;10774;42.178;26.578;2023-04-27T08:47:44;99852.28;;;11.69;81.00
21234;BME280;10774;42.178;26.578;2023-04-27T08:50:10;99873.06;;;12.06;82.54
21234;BME280;10774;42.178;26.578;2023-04-27T08:52:36;99875.25;;;12.37;81.57
21234;BME280;10774;42.178;26.578;2023-04-27T08:55:02;99894.56;;;11.27;79.71
21234;BME280;10774;42.178;26.578;2023-04-27T08:57:29;99879.59;;;11.50;82.00
21234;BME280;10774;42.178;26.578;2023-04-27T08:59:58;99880.22;;;11.29;80.39
21234;BME280;10774;42.178;26.578;2023-04-27T09:02:25;99859.31;;;11.85;83.52
21234;BME280;10774;42.178;26.578;2023-04-27T09:04:53;99859.38;;;11.70;80.13
21234;BME280;10774;42.178;26.578;2023-04-27T09:07:19;99875.09;;;11.76;77.30
21234;BME280;10774;42.178;26.578;2023-04-27T09:09:45;99864.53;;;11.73;77.15
21234;BME280;10774;42.178;26.578;2023-04-27T09:12:18;99877.56;;;12.67;76.49
21234;BME280;10774;42.178;26.578;2023-04-27T09:14:57;99871.09;;;12.94;77.09
21234;BME280;10774;42.178;26.578;2023-04-27T09:17:24;99867.63;;;12.92;73.21
21234;BME280;10774;42.178;26.578;2023-04-27T09:20:01;99879.97;;;13.07;71.12
21234;BME280;10774;42.178;26.578;2023-04-27T09:22:30;99859.00;;;12.39;70.15
21234;BME280;10774;42.178;26.578;2023-04-27T09:24:55;99855.00;;;13.16;71.85
21234;BME280;10774;42.178;26.578;2023-04-27T09:27:20;99864.28;;;13.71;69.07
21234;BME280;10774;42.178;26.578;2023-04-27T09:29:47;99847.88;;;12.56;69.81
21234;BME280;10774;42.178;26.578;2023-04-27T09:32:14;99860.59;;;13.02;71.29
21234;BME280;10774;42.178;26.578;2023-04-27T09:34:40;99848.53;;;13.19;67.81
21234;BME280;10774;42.178;26.578;2023-04-27T09:37:06;99842.94;;;13.68;65.74
21234;BME280;10774;42.178;26.578;2023-04-27T09:39:32;99844.13;;;13.53;64.69
21234;BME280;10774;42.178;26.578;2023-04-27T09:41:58;99850.47;;;13.41;65.83
21234;BME280;10774;42.178;26.578;2023-04-27T09:44:25;99843.81;;;13.80;63.12
21234;BME280;10774;42.178;26.578;2023-04-27T09:46:53;99839.25;;;13.92;66.42
21234;BME280;10774;42.178;26.578;2023-04-27T09:49:22;99837.75;;;14.44;62.67
21234;BME280;10774;42.178;26.578;2023-04-27T09:51:49;99829.94;;;14.41;64.45
21234;BME280;10774;42.178;26.578;2023-04-27T09:54:14;99828.81;;;14.43;61.57
21234;BME280;10774;42.178;26.578;2023-04-27T09:56:43;99833.44;;;15.07;61.10
21234;BME280;10774;42.178;26.578;2023-04-27T09:59:40;99823.09;;;15.12;60.12
21234;BME280;10774;42.178;26.578;2023-04-27T10:02:15;99829.59;;;14.88;60.14
21234;BME280;10774;42.178;26.578;2023-04-27T10:04:55;99833.88;;;14.14;61.06
21234;BME280;10774;42.178;26.578;2023-04-27T10:07:25;99826.97;;;14.32;65.18
21234;BME280;10774;42.178;26.578;2023-04-27T10:09:51;99819.72;;;14.99;59.84
21234;BME280;10774;42.178;26.578;2023-04-27T10:17:14;99830.19;;;15.24;57.46
21234;BME280;10774;42.178;26.578;2023-04-27T10:19:40;99830.13;;;15.35;59.14
21234;BME280;10774;42.178;26.578;2023-04-27T10:22:16;99813.47;;;14.66;58.38
21234;BME280;10774;42.178;26.578;2023-04-27T10:24:41;99832.72;;;14.73;59.54
21234;BME280;10774;42.178;26.578;2023-04-27T10:27:15;99818.13;;;14.42;59.92
21234;BME280;10774;42.178;26.578;2023-04-27T10:29:45;99802.19;;;14.27;61.83
21234;BME280;10774;42.178;26.578;2023-04-27T10:32:24;99819.53;;;14.79;60.07
21234;BME280;10774;42.178;26.578;2023-04-27T10:34:51;99827.91;;;15.08;61.21
21234;BME280;10774;42.178;26.578;2023-04-27T10:37:18;99823.75;;;14.72;59.54
21234;BME280;10774;42.178;26.578;2023-04-27T10:39:49;99830.94;;;14.51;58.43
21234;BME280;10774;42.178;26.578;2023-04-27T10:42:25;99812.03;;;13.72;61.43
21234;BME280;10774;42.178;26.578;2023-04-27T10:44:56;99827.50;;;14.04;62.80
21234;BME280;10774;42.178;26.578;2023-04-27T10:47:22;99829.06;;;14.95;63.97
21234;BME280;10774;42.178;26.578;2023-04-27T10:49:51;99820.63;;;15.41;59.83
21234;BME280;10774;42.178;26.578;2023-04-27T10:52:17;99836.06;;;14.31;59.99
21234;BME280;10774;42.178;26.578;2023-04-27T10:54:45;99833.88;;;13.92;62.01
21234;BME280;10774;42.178;26.578;2023-04-27T10:57:11;99831.28;;;14.12;63.85
21234;BME280;10774;42.178;26.578;2023-04-27T10:59:48;99826.72;;;14.58;62.19
21234;BME280;10774;42.178;26.578;2023-04-27T11:02:14;99824.81;;;14.15;62.89
21234;BME280;10774;42.178;26.578;2023-04-27T11:04:40;99832.91;;;13.81;62.70
21234;BME280;10774;42.178;26.578;2023-04-27T11:07:07;99832.66;;;13.96;64.40
21234;BME280;10774;42.178;26.578;2023-04-27T11:09:34;99829.94;;;14.07;63.35
21234;BME280;10774;42.178;26.578;2023-04-27T11:12:00;99825.53;;;14.06;65.03
21234;BME280;10774;42.178;26.578;2023-04-27T11:14:26;99831.28;;;13.79;66.07
21234;BME280;10774;42.178;26.578;2023-04-27T11:16:51;99830.22;;;13.81;64.09
21234;BME280;10774;42.178;26.578;2023-04-27T11:19:17;99831.59;;;13.29;66.75
21234;BME280;10774;42.178;26.578;2023-04-27T11:21:43;99833.41;;;13.05;67.14
21234;BME280;10774;42.178;26.578;2023-04-27T11:24:08;99847.47;;;12.97;68.04
21234;BME280;10774;42.178;26.578;2023-04-27T11:26:37;99841.72;;;13.02;67.82
21234;BME280;10774;42.178;26.578;2023-04-27T11:29:07;99851.41;;;13.28;69.21
21234;BME280;10774;42.178;26.578;2023-04-27T11:31:48;99846.38;;;13.00;69.58
21234;BME280;10774;42.178;26.578;2023-04-27T11:34:21;99842.69;;;13.01;71.19
21234;BME280;10774;42.178;26.578;2023-04-27T11:39:27;99851.06;;;13.09;71.16
21234;BME280;10774;42.178;26.578;2023-04-27T11:41:53;99864.81;;;13.17;69.44
21234;BME280;10774;42.178;26.578;2023-04-27T11:44:24;99855.66;;;12.96;70.59
21234;BME280;10774;42.178;26.578;2023-04-27T11:46:50;99854.41;;;13.48;71.84
21234;BME280;10774;42.178;26.578;2023-04-27T11:49:17;99846.28;;;13.13;70.14
21234;BME280;10774;42.178;26.578;2023-04-27T11:51:44;99848.78;;;13.40;71.96
21234;BME280;10774;42.178;26.578;2023-04-27T11:54:10;99841.41;;;13.42;68.50
21234;BME280;10774;42.178;26.578;2023-04-27T11:56:38;99843.22;;;13.30;67.86
21234;BME280;10774;42.178;26.578;2023-04-27T11:59:04;99857.97;;;13.48;69.99
21234;BME280;10774;42.178;26.578;2023-04-27T12:01:32;99841.44;;;13.53;69.24
21234;BME280;10774;42.178;26.578;2023-04-27T12:03:58;99842.91;;;13.46;69.56
21234;BME280;10774;42.178;26.578;2023-04-27T12:06:27;99844.66;;;13.92;67.81
21234;BME280;10774;42.178;26.578;2023-04-27T12:08:56;99858.75;;;13.26;67.91
21234;BME280;10774;42.178;26.578;2023-04-27T12:11:24;99856.28;;;13.23;69.55
21234;BME280;10774;42.178;26.578;2023-04-27T12:13:50;99853.19;;;13.41;69.87
21234;BME280;10774;42.178;26.578;2023-04-27T12:16:17;99835.06;;;13.54;69.15
21234;BME280;10774;42.178;26.578;2023-04-27T12:18:42;99849.34;;;14.01;70.10
21234;BME280;10774;42.178;26.578;2023-04-27T12:21:07;99852.50;;;14.28;68.52
21234;BME280;10774;42.178;26.578;2023-04-27T12:23:34;99853.75;;;14.13;69.08
21234;BME280;10774;42.178;26.578;2023-04-27T12:26:00;99848.47;;;13.78;68.93
21234;BME280;10774;42.178;26.578;2023-04-27T12:28:26;99845.91;;;13.76;70.48
21234;BME280;10774;42.178;26.578;2023-04-27T12:30:51;99854.28;;;13.49;69.38
21234;BME280;10774;42.178;26.578;2023-04-27T12:33:17;99855.84;;;13.29;68.62
21234;BME280;10774;42.178;26.578;2023-04-27T12:35:42;99843.44;;;13.27;69.53
21234;BME280;10774;42.178;26.578;2023-04-27T12:38:07;99853.66;;;13.34;70.18
21234;BME280;10774;42.178;26.578;2023-04-27T12:40:33;99852.94;;;13.20;69.68
21234;BME280;10774;42.178;26.578;2023-04-27T12:42:59;99873.31;;;13.59;69.15
21234;BME280;10774;42.178;26.578;2023-04-27T12:45:25;99861.88;;;13.44;68.21
21234;BME280;10774;42.178;26.578;2023-04-27T12:47:51;99868.16;;;13.45;68.72
21234;BME280;10774;42.178;26.578;2023-04-27T12:50:18;99861.00;;;13.44;69.10
21234;BME280;10774;42.178;26.578;2023-04-27T12:52:44;99852.41;;;13.39;69.24